Time;durP1;ratioP1;P1;durP2;ratioP2;P2;SDS_P1;SDS_P2;PMS_P1;PMS_P2;Temp;Humidity;BMP_temperature;BMP_pressure;BME280_temperature;BME280_humidity;BME280_pressure;Samples;Min_cycle;Max_cycle;Signal;HPM_P1;HPM_P2
2022/10/19 00:02:20;;;;;;;21.95;16.05;;;;;;;14.22;100.00;101527.69;5084575;28;20181;-77
2022/10/19 00:04:46;;;;;;;26.70;16.92;;;;;;;14.22;100.00;101525.84;5089621;28;20228;-76
2022/10/19 00:07:13;;;;;;;24.40;17.55;;;;;;;14.21;100.00;101531.34;5091209;28;20211;-77
2022/10/19 00:09:39;;;;;;;28.17;17.25;;;;;;;14.17;100.00;101530.59;5087095;28;20204;-76
2022/10/19 00:12:06;;;;;;;27.60;17.55;;;;;;;14.16;100.00;101534.25;5072525;28;20208;-75
2022/10/19 00:14:33;;;;;;;21.95;16.17;;;;;;;14.13;100.00;101529.88;5072412;28;20581;-76
2022/10/19 00:17:01;;;;;;;31.98;17.90;;;;;;;14.13;100.00;101529.88;5074960;28;20204;-76
2022/10/19 00:19:28;;;;;;;23.70;16.85;;;;;;;14.08;100.00;101531.84;5076309;28;20195;-75
2022/10/19 00:21:55;;;;;;;30.95;18.08;;;;;;;14.05;100.00;101534.72;5077001;28;20207;-75
2022/10/19 00:24:22;;;;;;;25.00;16.60;;;;;;;14.04;100.00;101523.94;5077312;28;20224;-75
2022/10/19 00:26:49;;;;;;;26.52;16.85;;;;;;;14.01;100.00;101534.91;5077566;28;20654;-75
2022/10/19 00:29:16;;;;;;;25.27;15.60;;;;;;;13.95;100.00;101525.19;5076255;28;20689;-75
2022/10/19 00:31:43;;;;;;;32.10;18.88;;;;;;;13.94;100.00;101527.03;5075591;28;20188;-75
2022/10/19 00:34:11;;;;;;;33.53;17.98;;;;;;;13.82;100.00;101524.84;5076335;28;20213;-75
2022/10/19 00:36:40;;;;;;;25.33;16.98;;;;;;;13.77;100.00;101522.31;5076739;28;20201;-76
2022/10/19 00:39:10;;;;;;;28.67;18.08;;;;;;;13.69;100.00;101526.28;5076963;28;20200;-74
2022/10/19 00:41:37;;;;;;;25.50;16.15;;;;;;;13.69;100.00;101526.28;5077038;28;20181;-76
2022/10/19 00:44:07;;;;;;;30.27;18.05;;;;;;;13.65;100.00;101519.22;5077514;28;20216;-74
2022/10/19 00:46:36;;;;;;;32.10;17.90;;;;;;;13.62;100.00;101516.66;5076812;28;20255;-76
2022/10/19 00:49:06;;;;;;;27.65;17.55;;;;;;;13.60;100.00;101522.09;5075533;28;20571;-75
2022/10/19 00:51:36;;;;;;;29.38;16.95;;;;;;;13.60;100.00;101515.81;5075187;28;20196;-76
2022/10/19 00:54:04;;;;;;;27.15;17.83;;;;;;;13.53;100.00;101512.47;5074488;28;20220;-75
2022/10/19 00:56:32;;;;;;;25.65;17.38;;;;;;;13.45;100.00;101518.19;5075467;28;20197;-75
2022/10/19 00:58:59;;;;;;;28.10;18.30;;;;;;;13.48;100.00;101511.78;5074740;28;20200;-75
2022/10/19 01:01:28;;;;;;;29.05;17.65;;;;;;;13.45;100.00;101510.06;5076024;28;20200;-75
2022/10/19 01:03:55;;;;;;;27.33;16.85;;;;;;;13.41;100.00;101504.81;5077132;28;20221;-76
2022/10/19 01:06:23;;;;;;;26.98;17.80;;;;;;;13.41;100.00;101510.25;5077890;28;20658;-76
2022/10/19 01:08:51;;;;;;;24.95;17.42;;;;;;;13.40;100.00;101505.78;5076178;28;20245;-76
2022/10/19 01:11:34;;;;;;;27.20;16.38;;;;;;;13.33;100.00;101497.91;5075453;28;20288;-75
2022/10/19 01:14:16;;;;;;;30.63;17.80;;;;;;;13.38;100.00;101494.13;5075780;28;20216;-76
2022/10/19 01:16:50;;;;;;;25.77;17.35;;;;;;;13.34;100.00;101488.84;5075307;28;20207;-78
2022/10/19 01:19:40;;;;;;;28.70;18.50;;;;;;;13.38;100.00;101494.13;5076263;28;20197;-75
2022/10/19 01:22:19;;;;;;;26.92;17.35;;;;;;;13.40;100.00;101501.25;5079308;28;20184;-77
2022/10/19 01:24:59;;;;;;;32.25;17.65;;;;;;;13.42;100.00;101503.91;5090292;28;20209;-75
2022/10/19 01:27:43;;;;;;;27.25;18.30;;;;;;;13.37;100.00;101495.97;5079158;28;20199;-75
2022/10/19 01:30:20;;;;;;;28.65;16.90;;;;;;;13.34;100.00;101505.09;5074929;28;20653;-75
2022/10/19 01:32:54;;;;;;;34.13;19.50;;;;;;;13.35;100.00;101495.16;5074838;28;20189;-73
2022/10/19 01:35:28;;;;;;;25.88;16.35;;;;;;;13.27;100.00;101498.13;5074306;28;20658;-75
2022/10/19 01:38:04;;;;;;;31.45;17.25;;;;;;;13.22;100.00;101491.13;5073569;28;20559;-75
2022/10/19 01:40:38;;;;;;;47.83;17.20;;;;;;;13.25;100.00;101488.28;5074732;28;20185;-76
2022/10/19 01:43:13;;;;;;;28.10;17.52;;;;;;;13.24;100.00;101490.13;5074164;28;20217;-76
2022/10/19 01:45:47;;;;;;;27.75;16.92;;;;;;;13.19;100.00;101493.97;5074663;28;20189;-76
2022/10/19 01:48:16;;;;;;;27.13;17.95;;;;;;;13.19;100.00;101491.25;5074321;28;20218;-76
2022/10/19 01:50:50;;;;;;;25.95;16.70;;;;;;;13.19;100.00;101486.72;5073524;28;20207;-78
2022/10/19 01:53:19;;;;;;;28.65;17.63;;;;;;;13.13;100.00;101493.22;5066048;28;20220;-76
2022/10/19 01:55:50;;;;;;;31.83;18.65;;;;;;;13.07;100.00;101493.50;5075213;28;20196;-75
2022/10/19 01:58:20;;;;;;;30.08;18.30;;;;;;;13.07;100.00;101489.88;5074729;28;20192;-76
2022/10/19 02:00:49;;;;;;;27.27;16.42;;;;;;;13.07;100.00;101487.19;5074696;28;20196;-75
2022/10/19 02:03:17;;;;;;;26.00;15.95;;;;;;;13.07;100.00;101477.25;5073141;28;20221;-76
2022/10/19 02:05:45;;;;;;;32.60;17.00;;;;;;;13.07;100.00;101479.97;5073258;28;20639;-76
2022/10/19 02:08:17;;;;;;;30.27;16.10;;;;;;;13.06;100.00;101488.13;5073526;28;20197;-76
2022/10/19 02:10:45;;;;;;;30.50;16.98;;;;;;;13.03;100.00;101486.44;5073387;28;20199;-76
2022/10/19 02:13:13;;;;;;;29.35;16.60;;;;;;;13.02;100.00;101486.47;5073174;28;20224;-75
2022/10/19 02:15:44;;;;;;;28.25;17.13;;;;;;;13.00;100.00;101485.66;5075500;28;20227;-75
2022/10/19 02:18:15;;;;;;;28.50;16.70;;;;;;;13.05;100.00;101491.78;5076998;28;20200;-77
2022/10/19 02:20:41;;;;;;;30.10;16.55;;;;;;;13.10;100.00;101485.25;5073770;28;20185;-76
2022/10/19 02:23:09;;;;;;;28.65;16.80;;;;;;;13.19;100.00;101485.84;5072322;28;20224;-76
2022/10/19 02:25:36;;;;;;;30.15;16.30;;;;;;;13.22;100.00;101483.00;5073185;28;20607;-75
2022/10/19 02:28:04;;;;;;;26.40;14.63;;;;;;;13.28;100.00;101474.69;5072858;28;20200;-76
2022/10/19 02:30:31;;;;;;;25.50;15.57;;;;;;;13.33;100.00;101480.78;5073583;28;20207;-77
2022/10/19 02:32:57;;;;;;;28.02;15.25;;;;;;;13.37;100.00;101476.16;5072926;28;20217;-76
2022/10/19 02:35:25;;;;;;;26.48;16.25;;;;;;;13.42;100.00;101474.13;5073498;28;20239;-75
2022/10/19 02:37:52;;;;;;;22.88;15.05;;;;;;;13.53;100.00;101477.28;5073583;28;20196;-75
2022/10/19 02:40:19;;;;;;;26.73;16.08;;;;;;;13.60;100.00;101465.25;5074394;28;20576;-76
2022/10/19 02:42:50;;;;;;;24.73;15.57;;;;;;;13.68;100.00;101470.34;5072894;28;20204;-75
2022/10/19 02:45:23;;;;;;;22.73;14.05;;;;;;;13.66;100.00;101464.16;5074377;28;20240;-76
2022/10/19 02:47:55;;;;;;;25.70;15.35;;;;;;;13.63;100.00;101453.44;5073772;28;20201;-75
2022/10/19 02:50:23;;;;;;;25.10;14.50;;;;;;;13.62;100.00;101449.84;5074058;28;20185;-75
2022/10/19 02:52:51;;;;;;;28.38;14.95;;;;;;;13.64;100.00;101445.25;5071813;28;20201;-76
2022/10/19 02:55:18;;;;;;;27.08;14.55;;;;;;;13.62;100.00;101447.13;5072681;28;20564;-75
2022/10/19 02:57:44;;;;;;;23.55;14.60;;;;;;;13.65;100.00;101448.84;5072365;28;20284;-76
2022/10/19 03:00:12;;;;;;;24.13;14.10;;;;;;;13.59;100.00;101440.97;5072334;28;20572;-75
2022/10/19 03:02:38;;;;;;;22.17;13.60;;;;;;;13.58;100.00;101447.34;5072356;28;20575;-76
2022/10/19 03:05:05;;;;;;;23.15;14.20;;;;;;;13.66;100.00;101450.63;5073086;28;20216;-76
2022/10/19 03:07:32;;;;;;;21.13;14.60;;;;;;;13.72;100.00;101448.50;5071864;28;20201;-76
2022/10/19 03:10:00;;;;;;;23.75;12.70;;;;;;;13.80;100.00;101447.31;5072618;28;20204;-76
2022/10/19 03:12:26;;;;;;;22.83;13.15;;;;;;;13.81;100.00;101440.94;5072035;28;20670;-76
2022/10/19 03:14:53;;;;;;;24.45;14.70;;;;;;;13.86;100.00;101439.81;5072737;28;20220;-75
2022/10/19 03:17:19;;;;;;;22.65;12.90;;;;;;;13.88;100.00;101437.91;5072113;28;20199;-76
2022/10/19 03:19:46;;;;;;;25.05;14.02;;;;;;;13.90;100.00;101427.88;5072019;28;20655;-76
2022/10/19 03:22:13;;;;;;;22.70;13.82;;;;;;;13.87;100.00;101424.44;5072164;28;20207;-77
2022/10/19 03:24:40;;;;;;;18.58;13.63;;;;;;;13.75;100.00;101423.16;5070917;28;20220;-75
2022/10/19 03:27:08;;;;;;;21.52;12.77;;;;;;;13.77;100.00;101422.13;5072871;28;20210;-76
2022/10/19 03:29:34;;;;;;;22.48;11.75;;;;;;;13.84;100.00;101424.56;5072114;28;20224;-76
2022/10/19 03:32:01;;;;;;;19.92;14.18;;;;;;;13.85;100.00;101418.22;5072697;28;20203;-75
2022/10/19 03:34:27;;;;;;;24.77;15.10;;;;;;;13.86;100.00;101420.88;5071931;28;20224;-77
2022/10/19 03:36:55;;;;;;;31.23;16.70;;;;;;;13.81;100.00;101422.88;5071383;28;20196;-76
2022/10/19 03:39:22;;;;;;;24.30;14.43;;;;;;;13.82;100.00;101419.22;5072688;28;20208;-75
2022/10/19 03:41:48;;;;;;;30.35;17.17;;;;;;;13.85;100.00;101419.09;5072738;28;20200;-75
2022/10/19 03:44:16;;;;;;;24.40;15.77;;;;;;;13.85;100.00;101419.09;5072418;28;20228;-76
2022/10/19 03:46:43;;;;;;;24.95;14.50;;;;;;;13.89;100.00;101423.44;5072210;28;20188;-75
2022/10/19 03:49:10;;;;;;;22.23;13.50;;;;;;;13.88;100.00;101421.66;5073384;28;20212;-75
2022/10/19 03:51:36;;;;;;;17.10;12.93;;;;;;;13.91;100.00;101415.25;5072739;28;20204;-75
2022/10/19 03:54:05;;;;;;;25.85;15.00;;;;;;;13.88;100.00;101418.06;5072581;28;20317;-75
2022/10/19 03:56:34;;;;;;;32.83;12.77;;;;;;;13.75;100.00;101426.72;5074760;28;20212;-76
2022/10/19 03:59:03;;;;;;;21.65;13.13;;;;;;;13.63;100.00;101429.94;5074454;28;20597;-76
2022/10/19 04:01:33;;;;;;;19.23;12.32;;;;;;;13.55;100.00;101432.97;5074245;28;20215;-75
2022/10/19 04:04:02;;;;;;;19.95;13.05;;;;;;;13.40;100.00;101435.44;5076465;28;20220;-75
2022/10/19 04:06:31;;;;;;;19.40;12.90;;;;;;;13.39;100.00;101445.38;5076040;28;20204;-77
2022/10/19 04:08:58;;;;;;;20.98;12.95;;;;;;;13.35;100.00;101451.84;5078392;28;20211;-75
2022/10/19 04:11:27;;;;;;;22.10;13.45;;;;;;;13.27;100.00;101448.53;5077365;28;20203;-77
2022/10/19 04:13:57;;;;;;;20.60;13.35;;;;;;;13.22;100.00;101458.66;5073391;28;20217;-75
2022/10/19 04:16:25;;;;;;;27.98;14.50;;;;;;;13.22;100.00;101455.94;5072116;28;20196;-74
2022/10/19 04:18:53;;;;;;;25.33;13.85;;;;;;;13.06;100.00;101444.84;5072921;28;20208;-76
2022/10/19 04:21:22;;;;;;;19.75;13.95;;;;;;;13.02;100.00;101454.03;5072702;28;20204;-76
2022/10/19 04:23:50;;;;;;;21.13;13.82;;;;;;;13.02;100.00;101454.91;5071790;28;20583;-76
2022/10/19 04:26:17;;;;;;;25.08;14.55;;;;;;;12.95;100.00;101447.97;5059583;28;20635;-77
2022/10/19 04:28:44;;;;;;;19.10;13.48;;;;;;;12.88;100.00;101452.72;5071844;28;20207;-72
2022/10/19 04:31:11;;;;;;;24.40;15.60;;;;;;;12.89;100.00;101454.50;5058779;28;20673;-74
2022/10/19 04:33:38;;;;;;;23.23;14.00;;;;;;;12.89;100.00;101450.94;5072449;28;20216;-74
2022/10/19 04:36:08;;;;;;;22.45;14.35;;;;;;;12.99;100.00;101449.63;5056445;28;20558;-75
2022/10/19 04:38:36;;;;;;;22.15;14.30;;;;;;;13.05;100.00;101451.22;5052566;28;20224;-74
2022/10/19 04:41:03;;;;;;;22.13;14.25;;;;;;;13.05;100.00;101443.09;5053743;28;20201;-76
2022/10/19 04:43:30;;;;;;;24.88;13.65;;;;;;;13.12;100.00;101444.63;5053122;28;20230;-75
2022/10/19 04:45:57;;;;;;;32.25;15.55;;;;;;;13.07;100.00;101441.19;5052529;28;20225;-76
2022/10/19 04:48:23;;;;;;;27.15;13.60;;;;;;;13.04;100.00;101434.09;5068606;28;20192;-76
2022/10/19 04:50:53;;;;;;;18.40;12.88;;;;;;;13.02;100.00;101444.09;5071407;28;20222;-75
2022/10/19 04:53:22;;;;;;;24.65;15.38;;;;;;;13.04;100.00;101436.78;5071055;28;20235;-73
2022/10/19 04:55:49;;;;;;;24.88;14.32;;;;;;;13.06;100.00;101443.03;5113516;22;20239;-73
2022/10/19 04:58:15;;;;;;;26.75;16.45;;;;;;;13.03;100.00;101445.00;5095859;28;20184;-73
2022/10/19 05:00:42;;;;;;;27.73;15.35;;;;;;;12.99;100.00;101432.53;5096758;28;20173;-74
2022/10/19 05:03:08;;;;;;;22.83;13.70;;;;;;;13.12;100.00;101440.09;5099148;28;20189;-75
2022/10/19 05:05:35;;;;;;;23.33;13.43;;;;;;;13.10;100.00;101439.25;5100251;28;20276;-75
2022/10/19 05:08:01;;;;;;;24.20;13.77;;;;;;;13.10;100.00;101439.25;5083440;28;20478;-75
2022/10/19 05:10:30;;;;;;;20.20;13.98;;;;;;;13.09;100.00;101440.22;5098896;28;20189;-75
2022/10/19 05:12:56;;;;;;;23.23;13.20;;;;;;;13.16;100.00;101435.47;5099831;28;20240;-76
2022/10/19 05:15:23;;;;;;;24.45;13.60;;;;;;;13.14;100.00;101440.91;5099534;28;20209;-75
2022/10/19 05:17:49;;;;;;;24.10;14.80;;;;;;;13.14;100.00;101440.03;5095118;28;20201;-75
2022/10/19 05:20:16;;;;;;;22.48;12.98;;;;;;;13.11;100.00;101435.63;5083256;28;20210;-76
2022/10/19 05:22:42;;;;;;;24.75;13.35;;;;;;;12.98;100.00;101441.56;5083887;28;20548;-77
2022/10/19 05:25:09;;;;;;;20.02;14.18;;;;;;;12.96;100.00;101441.63;5083165;28;20247;-75
2022/10/19 05:27:37;;;;;;;22.45;14.32;;;;;;;12.96;100.00;101447.06;5081229;28;20204;-74
2022/10/19 05:30:05;;;;;;;21.08;14.20;;;;;;;13.01;100.00;101446.88;5079674;28;20291;-74
2022/10/19 05:32:32;;;;;;;24.00;13.20;;;;;;;13.13;100.00;101455.38;5079171;28;20254;-76
2022/10/19 05:34:58;;;;;;;22.88;13.85;;;;;;;13.13;100.00;101441.84;5079167;28;20213;-77
2022/10/19 05:37:25;;;;;;;18.00;12.63;;;;;;;13.13;100.00;101439.13;5078789;28;20208;-75
2022/10/19 05:39:52;;;;;;;16.80;11.98;;;;;;;13.20;100.00;101433.50;5078456;28;20200;-76
2022/10/19 05:42:18;;;;;;;19.40;12.00;;;;;;;13.23;100.00;101436.97;5078472;28;20670;-76
2022/10/19 05:44:46;;;;;;;17.38;12.25;;;;;;;13.24;100.00;101437.84;5077530;28;20714;-75
2022/10/19 05:47:13;;;;;;;18.40;11.80;;;;;;;13.26;100.00;101430.56;5077986;28;20575;-74
2022/10/19 05:49:39;;;;;;;19.85;12.65;;;;;;;13.25;100.00;101424.25;5078370;28;20223;-76
2022/10/19 05:52:06;;;;;;;23.17;12.77;;;;;;;13.21;100.00;101421.75;5077655;28;20654;-77
2022/10/19 05:54:32;;;;;;;20.77;13.00;;;;;;;13.13;100.00;101425.59;5093926;28;20236;-77
2022/10/19 05:56:59;;;;;;;21.48;13.45;;;;;;;13.15;100.00;101422.84;5093340;28;20201;-76
2022/10/19 05:59:25;;;;;;;18.02;12.23;;;;;;;13.09;100.00;101429.41;5096444;28;20204;-75
2022/10/19 06:01:53;;;;;;;18.90;13.23;;;;;;;13.11;100.00;101427.53;5100774;28;20298;-74
2022/10/19 06:04:20;;;;;;;20.48;11.15;;;;;;;13.10;100.00;101427.56;5098415;28;20224;-75
2022/10/19 06:06:46;;;;;;;19.88;11.63;;;;;;;13.09;100.00;101426.69;5097617;28;20223;-75
2022/10/19 06:09:13;;;;;;;20.75;10.82;;;;;;;13.06;100.00;101424.09;5096414;28;20230;-76
2022/10/19 06:11:42;;;;;;;19.13;11.35;;;;;;;13.05;100.00;101421.47;5098666;28;20200;-76
2022/10/19 06:14:12;;;;;;;20.20;11.45;;;;;;;13.02;100.00;101427.84;5107948;28;20220;-76
2022/10/19 06:16:39;;;;;;;18.50;11.05;;;;;;;13.10;100.00;101420.34;5110892;28;20259;-76
2022/10/19 06:19:06;;;;;;;16.42;10.32;;;;;;;13.04;100.00;101425.09;5105783;28;20230;-76
2022/10/19 06:21:34;;;;;;;12.63;9.75;;;;;;;13.01;100.00;101420.69;5100197;28;20203;-75
2022/10/19 06:24:02;;;;;;;24.65;10.45;;;;;;;13.02;100.00;101418.88;5098264;28;20236;-76
2022/10/19 06:26:30;;;;;;;16.27;10.57;;;;;;;13.04;100.00;101420.56;5096516;28;20259;-75
2022/10/19 06:29:00;;;;;;;20.35;10.90;;;;;;;13.15;100.00;101421.03;5096515;28;20207;-77
2022/10/19 06:31:26;;;;;;;13.60;10.40;;;;;;;13.21;100.00;101421.75;5097123;28;20196;-74
2022/10/19 06:33:53;;;;;;;18.08;10.20;;;;;;;13.37;100.00;101424.75;5095916;28;20208;-75
2022/10/19 06:36:23;;;;;;;17.27;10.52;;;;;;;13.58;100.00;101418.44;5099175;28;20216;-75
2022/10/19 06:38:51;;;;;;;17.77;10.43;;;;;;;13.78;100.00;101420.31;5096317;28;20195;-73
2022/10/19 06:41:19;;;;;;;14.15;9.50;;;;;;;14.07;100.00;101424.47;5096994;28;20294;-74
2022/10/19 06:43:49;;;;;;;13.75;9.82;;;;;;;14.52;100.00;101430.63;5095363;28;20598;-76
2022/10/19 06:46:19;;;;;;;14.27;9.35;;;;;;;14.87;100.00;101423.56;5095252;28;20230;-76
2022/10/19 06:48:49;;;;;;;12.45;8.05;;;;;;;15.06;100.00;101420.91;5095754;28;20481;-75
2022/10/19 06:51:16;;;;;;;11.45;8.40;;;;;;;15.13;100.00;101408.78;5095603;28;20200;-74
2022/10/19 06:53:44;;;;;;;13.93;8.68;;;;;;;15.04;100.00;101413.75;5094618;28;20199;-75
2022/10/19 06:56:10;;;;;;;12.00;8.32;;;;;;;14.77;100.00;101420.44;5082471;28;20193;-75
2022/10/19 06:58:38;;;;;;;12.88;7.88;;;;;;;14.63;100.00;101417.50;5078818;28;20189;-77
2022/10/19 07:01:07;;;;;;;12.75;8.40;;;;;;;14.50;100.00;101427.97;5080905;28;20204;-74
2022/10/19 07:03:34;;;;;;;13.52;7.90;;;;;;;14.52;100.00;101420.66;5080229;28;20223;-75
2022/10/19 07:06:02;;;;;;;15.43;8.30;;;;;;;14.31;100.00;101425.22;5084845;28;20229;-75
2022/10/19 07:08:31;;;;;;;10.10;7.80;;;;;;;14.34;100.00;101435.91;5082263;28;20201;-74
2022/10/19 07:11:01;;;;;;;12.23;7.72;;;;;;;14.45;100.00;101442.66;5080102;28;20292;-75
2022/10/19 07:13:28;;;;;;;11.73;7.88;;;;;;;14.43;100.00;101441.88;5080257;28;20222;-74
2022/10/19 07:15:57;;;;;;;12.20;7.45;;;;;;;14.22;100.00;101439.16;5082331;28;20213;-75
2022/10/19 07:18:23;;;;;;;18.02;7.75;;;;;;;14.13;100.00;101431.44;5080881;28;20201;-75
2022/10/19 07:20:55;;;;;;;16.95;8.55;;;;;;;13.98;100.00;101433.88;5084738;28;20197;-75
2022/10/19 07:23:21;;;;;;;13.52;8.20;;;;;;;14.04;100.00;101439.97;5083754;28;20189;-74
2022/10/19 07:25:48;;;;;;;14.68;8.45;;;;;;;14.09;100.00;101440.66;5085630;28;20315;-75
2022/10/19 07:28:15;;;;;;;11.57;7.55;;;;;;;14.06;100.00;101440.78;5083832;28;20214;-75
2022/10/19 07:30:42;;;;;;;10.45;7.78;;;;;;;14.01;100.00;101448.22;5083415;28;20215;-73
2022/10/19 07:33:08;;;;;;;12.23;7.53;;;;;;;14.07;100.00;101437.13;5083240;28;20282;-75
2022/10/19 07:35:35;;;;;;;12.32;7.70;;;;;;;14.13;100.00;101440.47;5088282;28;20220;-74
2022/10/19 07:38:02;;;;;;;13.55;6.82;;;;;;;14.23;100.00;101440.94;5088520;28;20204;-74
2022/10/19 07:40:29;;;;;;;11.30;7.07;;;;;;;14.27;100.00;101449.78;5081903;28;20211;-74
2022/10/19 07:42:55;;;;;;;10.95;7.18;;;;;;;14.45;100.00;101445.38;5079504;28;20291;-73
2022/10/19 07:45:23;;;;;;;10.35;7.65;;;;;;;14.47;100.00;101448.91;5081537;28;20216;-74
2022/10/19 07:47:50;;;;;;;10.27;7.00;;;;;;;14.69;100.00;101454.28;5084111;28;20211;-75
2022/10/19 07:50:16;;;;;;;13.75;7.78;;;;;;;14.79;100.00;101459.22;5079014;28;20554;-74
2022/10/19 07:52:43;;;;;;;9.43;7.53;;;;;;;14.98;100.00;101447.50;5079518;28;20204;-74
2022/10/19 07:55:09;;;;;;;9.90;7.25;;;;;;;15.10;100.00;101456.88;5079411;28;20557;-75
2022/10/19 07:57:36;;;;;;;11.15;6.53;;;;;;;15.29;100.00;101451.47;5079911;28;20197;-75
2022/10/19 08:00:03;;;;;;;15.75;7.10;;;;;;;15.59;100.00;101449.94;5080147;28;20192;-75
2022/10/19 08:02:31;;;;;;;10.77;7.80;;;;;;;16.20;100.00;101447.81;5080992;28;20211;-74
2022/10/19 08:04:57;;;;;;;7.65;6.28;;;;;;;17.59;100.00;101452.88;5079423;28;20220;-76
2022/10/19 08:07:24;;;;;;;8.68;6.57;;;;;;;17.93;100.00;101450.91;5083757;28;20228;-75
2022/10/19 08:09:50;;;;;;;8.37;6.40;;;;;;;18.04;100.00;101459.31;5083057;28;20208;-73
2022/10/19 08:12:17;;;;;;;9.83;6.43;;;;;;;17.88;100.00;101453.03;5072800;28;20469;-75
2022/10/19 08:14:44;;;;;;;8.00;6.40;;;;;;;18.06;100.00;101457.38;5074547;28;20466;-74
2022/10/19 08:17:15;;;;;;;9.33;6.50;;;;;;;18.46;95.25;101451.34;5073499;28;20446;-74
2022/10/19 08:19:43;;;;;;;8.83;6.47;;;;;;;18.75;91.89;101468.63;5072558;28;20456;-75
2022/10/19 08:22:10;;;;;;;10.60;6.60;;;;;;;19.66;82.71;101455.47;5073248;28;20446;-74
2022/10/19 08:24:36;;;;;;;8.40;5.77;;;;;;;20.71;74.24;101451.06;5072970;28;20465;-75
2022/10/19 08:27:03;;;;;;;11.63;6.33;;;;;;;20.63;73.36;101448.00;5072935;28;20485;-74
2022/10/19 08:29:30;;;;;;;9.37;6.50;;;;;;;21.67;66.41;101440.38;5073225;28;20461;-75
2022/10/19 08:31:56;;;;;;;8.90;5.93;;;;;;;22.33;60.55;101442.66;5083749;28;20481;-74
2022/10/19 08:34:23;;;;;;;8.50;5.90;;;;;;;22.09;60.50;101435.31;5091058;28;20469;-75
2022/10/19 08:36:51;;;;;;;8.80;6.27;;;;;;;22.08;62.34;101439.06;5074815;28;20462;-75
2022/10/19 08:39:17;;;;;;;8.90;5.70;;;;;;;23.39;57.54;101437.75;5077371;28;20442;-75
2022/10/19 08:41:55;;;;;;;8.47;5.10;;;;;;;24.39;52.45;101434.78;5077041;28;20450;-75
2022/10/19 08:44:54;;;;;;;10.93;5.47;;;;;;;25.62;48.54;101429.28;5077469;28;20463;-74
2022/10/19 08:47:34;;;;;;;9.50;5.23;;;;;;;25.85;46.32;101434.53;5074064;28;20489;-74
2022/10/19 08:50:00;;;;;;;9.13;6.17;;;;;;;25.47;46.48;101431.56;5076965;28;20515;-74
2022/10/19 08:52:32;;;;;;;11.00;5.63;;;;;;;25.55;46.46;101428.97;5076639;28;20443;-75
2022/10/19 08:55:01;;;;;;;9.80;5.70;;;;;;;24.99;47.96;101421.22;5076414;28;20466;-75
2022/10/19 08:57:39;;;;;;;7.30;5.63;;;;;;;25.96;46.05;101423.34;5076870;28;20815;-75
2022/10/19 09:00:14;;;;;;;8.70;5.80;;;;;;;26.59;43.46;101428.41;5076188;28;20506;-76
2022/10/19 09:02:54;;;;;;;7.73;5.40;;;;;;;27.02;43.10;101426.94;5076607;28;20521;-75
2022/10/19 09:05:29;;;;;;;7.53;5.77;;;;;;;26.67;43.25;101433.19;5076720;28;20457;-75
2022/10/19 09:07:57;;;;;;;11.80;5.40;;;;;;;27.14;42.38;101424.88;5076620;28;20431;-75
2022/10/19 09:10:26;;;;;;;7.70;4.93;;;;;;;27.94;41.37;101426.00;5077410;28;20443;-75
2022/10/19 09:12:57;;;;;;;6.73;5.30;;;;;;;28.28;40.35;101408.63;5075034;28;20990;-75
2022/10/19 09:15:27;;;;;;;6.90;4.93;;;;;;;28.37;40.11;101418.75;5076363;28;20463;-75
2022/10/19 09:17:53;;;;;;;8.37;5.80;;;;;;;28.92;38.98;101423.13;5076035;28;20446;-75
2022/10/19 09:20:22;;;;;;;8.67;5.40;;;;;;;28.55;39.12;101417.88;5076804;28;20944;-75
2022/10/19 09:22:53;;;;;;;9.17;5.17;;;;;;;28.56;39.65;101408.53;5075401;28;20497;-75
2022/10/19 09:25:25;;;;;;;14.03;5.73;;;;;;;28.56;38.82;101416.84;5076334;28;20991;-75
2022/10/19 09:28:03;;;;;;;6.00;4.90;;;;;;;27.52;41.46;101410.00;5076506;28;20473;-77
2022/10/19 09:30:31;;;;;;;7.93;5.20;;;;;;;28.66;39.64;101409.28;5076209;28;20423;-74
2022/10/19 09:32:59;;;;;;;8.80;5.90;;;;;;;27.44;40.89;101398.81;5075549;28;20435;-75
2022/10/19 09:35:30;;;;;;;5.83;5.00;;;;;;;26.68;42.88;101410.94;5075373;28;20473;-75
2022/10/19 09:37:57;;;;;;;6.70;5.63;;;;;;;26.57;43.74;101409.25;5075834;28;20441;-73
2022/10/19 09:40:27;;;;;;;7.60;6.00;;;;;;;26.39;43.36;101403.56;5076115;28;20442;-74
2022/10/19 09:42:57;;;;;;;11.37;5.77;;;;;;;27.43;42.25;101397.97;5075755;28;20430;-74
2022/10/19 09:45:38;;;;;;;8.00;4.90;;;;;;;28.33;39.98;101409.03;5075523;28;20454;-74
2022/10/19 09:48:16;;;;;;;7.57;5.67;;;;;;;27.64;41.55;101405.97;5075183;28;20991;-74
2022/10/19 09:50:44;;;;;;;8.90;5.87;;;;;;;27.90;40.98;101416.25;5076350;28;20484;-74
2022/10/19 09:53:18;;;;;;;6.97;5.93;;;;;;;27.66;41.70;101409.44;5077282;28;20465;-75
2022/10/19 09:55:50;;;;;;;5.67;5.00;;;;;;;26.83;43.47;101411.31;5077987;28;20475;-73
2022/10/19 09:58:18;;;;;;;8.17;6.33;;;;;;;24.90;48.20;101406.41;5077923;28;20447;-74
2022/10/19 10:00:47;;;;;;;7.00;5.93;;;;;;;25.77;46.92;101403.00;5078101;28;20435;-73
2022/10/19 10:03:24;;;;;;;6.07;5.47;;;;;;;26.08;45.65;101402.03;5088717;28;20450;-75
2022/10/19 10:05:51;;;;;;;7.43;5.97;;;;;;;26.40;45.21;101413.59;5079208;28;20471;-74
2022/10/19 10:08:20;;;;;;;10.07;6.37;;;;;;;25.85;46.57;101405.03;5076819;28;20443;-75
2022/10/19 10:10:56;;;;;;;8.57;5.80;;;;;;;25.42;48.78;101403.53;5076008;28;20457;-74
2022/10/19 10:13:26;;;;;;;8.93;5.53;;;;;;;25.70;48.30;101401.81;5075963;28;20427;-76
2022/10/19 10:15:56;;;;;;;6.50;5.63;;;;;;;26.09;46.44;101396.34;5076279;28;20462;-74
2022/10/19 10:18:24;;;;;;;9.67;5.60;;;;;;;27.21;43.60;101410.31;5075619;28;20427;-75
2022/10/19 10:21:01;;;;;;;6.47;5.60;;;;;;;28.17;42.03;101404.22;5080890;28;20442;-74
2022/10/19 10:23:31;;;;;;;8.40;4.80;;;;;;;29.38;40.09;101408.97;5086264;28;20431;-74
2022/10/19 10:26:00;;;;;;;7.40;4.77;;;;;;;29.05;40.07;101406.91;5084182;28;20458;-75
2022/10/19 10:28:29;;;;;;;9.20;7.03;;;;;;;30.11;38.56;101409.13;5079469;28;20509;-74
2022/10/19 10:31:03;;;;;;;10.50;5.63;;;;;;;29.82;38.86;101409.63;5075675;28;20446;-74
2022/10/19 10:33:32;;;;;;;6.73;4.60;;;;;;;29.13;40.42;101408.88;5074702;28;20438;-75
2022/10/19 10:36:04;;;;;;;5.13;4.63;;;;;;;29.61;39.29;101407.31;5075029;28;20467;-74
2022/10/19 10:38:33;;;;;;;7.23;4.67;;;;;;;29.08;40.10;101398.28;5074475;28;20441;-74
2022/10/19 10:41:06;;;;;;;8.23;4.80;;;;;;;28.18;41.84;101396.81;5075530;28;20803;-75
2022/10/19 10:43:36;;;;;;;9.10;5.90;;;;;;;26.59;45.79;101385.09;5074293;28;20537;-75
2022/10/19 10:46:07;;;;;;;15.03;7.27;;;;;;;24.95;51.50;101384.78;5074853;28;20462;-73
2022/10/19 10:48:38;;;;;;;8.77;6.90;;;;;;;23.47;58.91;101380.28;5074519;28;20478;-74
2022/10/19 10:51:19;;;;;;;9.03;6.00;;;;;;;23.76;58.87;101374.19;5074297;28;20434;-74
2022/10/19 10:53:46;;;;;;;10.93;6.33;;;;;;;23.32;60.46;101365.06;5074412;28;20453;-75
2022/10/19 10:56:27;;;;;;;10.07;6.40;;;;;;;22.98;63.28;101378.84;5110777;22;20512;-75
2022/10/19 10:59:00;;;;;;;9.20;7.37;;;;;;;22.78;65.42;101379.59;5093182;28;20426;-74
2022/10/19 11:01:33;;;;;;;9.37;5.97;;;;;;;22.58;67.60;101379.31;5096737;28;20814;-76
2022/10/19 11:04:03;;;;;;;10.67;6.80;;;;;;;22.18;70.03;101374.25;5095525;28;20424;-74
2022/10/19 11:06:33;;;;;;;12.10;6.50;;;;;;;22.40;68.64;101359.72;5073521;28;20494;-75
2022/10/19 11:09:07;;;;;;;10.13;6.97;;;;;;;22.13;70.80;101365.50;5072524;28;20442;-75
2022/10/19 11:11:39;;;;;;;8.40;6.63;;;;;;;21.86;71.95;101357.56;5073404;28;20514;-75
2022/10/19 11:14:26;;;;;;;9.97;7.20;;;;;;;21.66;75.23;101348.13;5075745;28;20423;-76
2022/10/19 11:16:55;;;;;;;7.47;6.67;;;;;;;21.92;74.09;101356.22;5075288;28;20488;-74
2022/10/19 11:19:26;;;;;;;11.40;6.77;;;;;;;21.88;74.22;101341.88;5075014;28;20455;-75